createdAt,value
2022-12-23T00:03:59.594Z,4.8
2022-12-23T00:09:02.058Z,4.8
2022-12-23T00:14:04.151Z,4.9
2022-12-23T00:19:06.227Z,4.9
2022-12-23T00:24:08.238Z,5
2022-12-23T00:29:10.313Z,5.1
2022-12-23T00:34:12.387Z,5.2
2022-12-23T00:39:14.716Z,5.3
2022-12-23T00:44:17.097Z,5.2
2022-12-23T00:49:19.174Z,5.3
2022-12-23T00:54:21.163Z,5.2
2022-12-23T00:59:23.464Z,5.2
2022-12-23T01:04:25.511Z,5.2
2022-12-23T01:09:27.844Z,5.1
2022-12-23T01:14:30.000Z,5.2
2022-12-23T01:19:33.047Z,5.3
2022-12-23T01:24:35.460Z,5.3
2022-12-23T01:29:37.630Z,5.3
2022-12-23T01:34:39.967Z,5.3
2022-12-23T01:39:42.557Z,5.2
2022-12-23T01:44:44.684Z,5.2
2022-12-23T01:49:46.726Z,5.2
2022-12-23T01:54:48.990Z,5.2
2022-12-23T01:59:51.837Z,5.2
2022-12-23T02:04:53.858Z,5.2
2022-12-23T02:09:56.466Z,5.3
2022-12-23T02:14:58.504Z,5.2
2022-12-23T02:20:01.063Z,5.3
2022-12-23T02:25:03.127Z,5.3
2022-12-23T02:30:05.208Z,5.3
2022-12-23T02:35:07.228Z,5.4
2022-12-23T02:40:09.417Z,5.5
2022-12-23T02:45:12.098Z,5.4
2022-12-23T02:50:14.127Z,5.4
2022-12-23T02:55:16.109Z,5.3
2022-12-23T03:00:18.344Z,5.4
2022-12-23T03:05:20.940Z,5.3
2022-12-23T03:10:23.055Z,5.3
2022-12-23T03:15:25.608Z,5.3
2022-12-23T03:20:27.679Z,5.3
2022-12-23T03:25:29.830Z,5.4
2022-12-23T03:30:32.071Z,5.3
2022-12-23T03:35:33.953Z,5.3
2022-12-23T03:40:36.146Z,5.4
2022-12-23T03:45:42.691Z,5.3
2022-12-23T03:50:45.207Z,5.3
2022-12-23T03:55:47.809Z,5.3
2022-12-23T04:00:49.896Z,5.3
2022-12-23T04:05:52.290Z,5.2
2022-12-23T04:10:54.392Z,5.2
2022-12-23T04:15:56.591Z,5.2
2022-12-23T04:20:58.605Z,5.1
2022-12-23T04:26:00.654Z,5.1
2022-12-23T04:31:02.864Z,5.1
2022-12-23T04:36:05.079Z,5.1
2022-12-23T04:41:07.256Z,5
2022-12-23T04:46:09.375Z,4.9
2022-12-23T04:51:11.576Z,4.9
2022-12-23T04:56:13.631Z,4.9
2022-12-23T05:01:15.930Z,4.8
2022-12-23T05:06:18.066Z,4.8
2022-12-23T05:11:20.103Z,4.8
2022-12-23T05:16:22.359Z,4.7
2022-12-23T05:21:24.818Z,4.6
2022-12-23T05:26:26.870Z,4.6
2022-12-23T05:31:29.298Z,4.5
2022-12-23T05:36:31.618Z,4.3
2022-12-23T05:41:33.974Z,4.3
2022-12-23T05:46:36.200Z,4.2
2022-12-23T05:51:38.339Z,4.1
2022-12-23T05:56:40.407Z,4
2022-12-23T06:01:43.412Z,4
2022-12-23T06:06:45.581Z,4
2022-12-23T06:11:47.694Z,3.8
2022-12-23T06:16:49.967Z,3.9
2022-12-23T06:21:52.197Z,4
2022-12-23T06:26:59.163Z,4
2022-12-23T06:32:02.133Z,4
2022-12-23T06:37:04.876Z,3.9
2022-12-23T06:42:07.207Z,3.9
2022-12-23T06:47:09.258Z,4
2022-12-23T06:52:11.226Z,3.9
2022-12-23T06:57:13.272Z,3.9
2022-12-23T07:02:16.324Z,3.9
2022-12-23T07:07:19.404Z,3.8
2022-12-23T07:12:21.402Z,3.7
2022-12-23T07:17:26.085Z,3.9
2022-12-23T07:22:40.050Z,4.1
2022-12-23T07:27:32.025Z,4.1
2022-12-23T07:32:34.117Z,4
2022-12-23T07:37:36.130Z,3.9
2022-12-23T07:42:48.737Z,3.8
2022-12-23T07:47:40.775Z,3.8
2022-12-23T07:57:43.467Z,3.4
2022-12-23T08:02:46.374Z,3.4
2022-12-23T08:07:49.156Z,3.4
2022-12-23T08:12:52.279Z,3.7
2022-12-23T08:17:55.023Z,3.7
2022-12-23T08:22:57.691Z,3.7
2022-12-23T08:28:00.304Z,3.8
2022-12-23T08:33:02.512Z,3.8
2022-12-23T08:38:04.546Z,4
2022-12-23T08:43:06.745Z,3.9
2022-12-23T08:48:09.843Z,4.6
2022-12-23T08:53:12.293Z,4.5
2022-12-23T08:58:14.535Z,4.7
2022-12-23T09:03:17.301Z,4.4
2022-12-23T09:08:19.466Z,4.4
2022-12-23T09:13:36.408Z,4.6
2022-12-23T09:18:28.464Z,4.6
2022-12-23T09:23:30.532Z,4.9
2022-12-23T09:28:32.623Z,5.1
2022-12-23T09:33:34.768Z,5.4
2022-12-23T09:38:37.276Z,5.9
2022-12-23T09:43:39.345Z,5.9
2022-12-23T09:48:41.442Z,5.9
2022-12-23T09:53:43.545Z,5.8
2022-12-23T09:58:45.650Z,5.8
2022-12-23T10:03:48.714Z,5.8
2022-12-23T10:08:51.862Z,5.7
2022-12-23T10:13:54.489Z,5.7
2022-12-23T10:18:56.622Z,5.7
2022-12-23T10:23:58.852Z,5.9
2022-12-23T10:29:01.159Z,6.1
2022-12-23T10:34:03.298Z,6
2022-12-23T10:39:05.385Z,5.9
2022-12-23T10:44:07.700Z,6.1
2022-12-23T10:49:10.532Z,6.4
2022-12-23T10:54:12.830Z,6.4
2022-12-23T10:59:15.074Z,6.3
2022-12-23T11:04:17.361Z,6.5
2022-12-23T11:09:19.406Z,6.3
2022-12-23T11:14:21.523Z,6.2
2022-12-23T11:19:23.680Z,6.3
2022-12-23T11:24:25.899Z,6.2
2022-12-23T11:29:28.286Z,6.4
2022-12-23T11:34:30.723Z,6.3
2022-12-23T11:39:32.888Z,6.4
2022-12-23T11:44:35.084Z,6.6
2022-12-23T11:49:38.461Z,7
2022-12-23T11:54:41.055Z,7.1
2022-12-23T11:59:43.488Z,7
2022-12-23T12:04:46.600Z,8.3
2022-12-23T12:09:49.882Z,8.8
2022-12-23T12:14:51.915Z,8.8
2022-12-23T12:24:55.047Z,13.7
2022-12-23T12:29:57.666Z,14.9
2022-12-23T12:40:09.108Z,16.3
2022-12-23T12:45:11.487Z,16.5
2022-12-23T12:50:13.577Z,17
2022-12-23T12:55:15.539Z,15.8
2022-12-23T13:00:17.791Z,16.7
2022-12-23T13:05:34.532Z,17.4
2022-12-23T13:15:37.870Z,17.5
2022-12-23T13:20:45.897Z,17
2022-12-23T13:25:49.214Z,15.9
2022-12-23T13:30:52.344Z,15.9
2022-12-23T13:36:08.461Z,14.8
2022-12-23T13:41:11.563Z,13.9
2022-12-23T13:46:14.392Z,13
2022-12-23T14:01:31.260Z,11
2022-12-23T14:06:37.974Z,10.7
2022-12-23T14:11:43.543Z,10.5
2022-12-23T14:21:45.664Z,10.3
2022-12-23T14:26:47.752Z,10.1
2022-12-23T14:31:49.884Z,10
2022-12-23T14:41:53.167Z,9.6
2022-12-23T14:47:06.858Z,9.5
2022-12-23T14:51:58.950Z,9.5
2022-12-23T14:57:03.578Z,9.2
2022-12-23T15:02:07.239Z,9.3
2022-12-23T15:07:09.416Z,9.3
2022-12-23T15:12:11.371Z,9.3
2022-12-23T15:17:13.355Z,9.3
2022-12-23T15:22:33.359Z,9
2022-12-23T15:27:32.396Z,8.9
2022-12-23T15:32:24.550Z,8.9
2022-12-23T15:37:26.737Z,8.9
2022-12-23T15:42:28.891Z,8.9
2022-12-23T15:47:31.716Z,8.8
2022-12-23T15:52:33.703Z,8.7
2022-12-23T15:57:35.735Z,8.7
2022-12-23T16:03:16.698Z,8.4
2022-12-23T16:07:38.986Z,8.5
2022-12-23T16:12:42.474Z,8.4
2022-12-23T16:17:44.538Z,8.3
2022-12-23T16:22:46.635Z,8.3
2022-12-23T16:27:51.584Z,8.3
2022-12-23T16:32:54.567Z,8.1
2022-12-23T16:37:56.684Z,8.1
2022-12-23T16:42:58.840Z,8
2022-12-23T16:48:01.140Z,7.9
2022-12-23T16:53:05.035Z,7.8
2022-12-23T16:58:07.125Z,7.8
2022-12-23T17:03:09.312Z,7.7
2022-12-23T17:08:11.349Z,7.7
2022-12-23T17:13:13.599Z,7.6
2022-12-23T17:18:15.758Z,7.4
2022-12-23T17:23:17.913Z,7.4
2022-12-23T17:28:20.203Z,7.4
2022-12-23T17:33:22.293Z,7.3
2022-12-23T17:38:25.408Z,7.3
2022-12-23T17:43:27.901Z,7.2
2022-12-23T17:48:34.600Z,7.2
2022-12-23T17:53:36.934Z,7.1
2022-12-23T17:58:39.960Z,7.1
2022-12-23T18:03:42.279Z,7
2022-12-23T18:08:44.551Z,7
2022-12-23T18:13:46.738Z,7
2022-12-23T18:18:49.389Z,7.1
2022-12-23T18:23:52.166Z,7.1
2022-12-23T18:28:54.753Z,7.1
2022-12-23T18:33:57.390Z,7.1
2022-12-23T18:38:59.502Z,7
2022-12-23T18:44:01.792Z,7.1
2022-12-23T18:49:04.100Z,7
2022-12-23T18:54:06.466Z,6.9
2022-12-23T18:59:08.905Z,7.1
2022-12-23T19:04:11.154Z,7.1
2022-12-23T19:09:13.520Z,7.3
2022-12-23T19:14:15.895Z,7.4
2022-12-23T19:19:18.256Z,7.4
2022-12-23T19:24:20.630Z,7.4
2022-12-23T19:29:22.936Z,7.4
2022-12-23T19:34:25.217Z,7.3
2022-12-23T19:39:28.598Z,7.2
2022-12-23T19:44:31.488Z,7.2
2022-12-23T19:49:33.809Z,7.1
2022-12-23T19:54:36.006Z,7.3
2022-12-23T19:59:38.241Z,7.3
2022-12-23T20:04:40.508Z,7.2
2022-12-23T20:09:43.220Z,7.2
2022-12-23T20:14:45.357Z,7.2
2022-12-23T20:19:48.666Z,7.2
2022-12-23T20:24:50.965Z,7.2
2022-12-23T20:29:53.361Z,7.2
2022-12-23T20:34:55.974Z,7.3
2022-12-23T20:39:58.342Z,7.3
2022-12-23T20:45:00.561Z,7.4
2022-12-23T20:50:02.935Z,7.5
2022-12-23T20:55:06.465Z,7.6
2022-12-23T21:00:10.549Z,7.8
2022-12-23T21:05:12.648Z,7.8
2022-12-23T21:10:15.029Z,7.9
2022-12-23T21:20:17.800Z,8.1
2022-12-23T21:25:20.028Z,8.2
2022-12-23T21:30:22.318Z,8.4
2022-12-23T21:35:24.596Z,8.4
2022-12-23T21:40:26.839Z,8.4
2022-12-23T21:45:29.591Z,8.4
2022-12-23T21:50:31.866Z,8.3
2022-12-23T21:55:34.060Z,8.3
2022-12-23T22:00:36.210Z,8.2
2022-12-23T22:05:39.401Z,8
2022-12-23T22:10:41.751Z,8
2022-12-23T22:15:43.893Z,8.1
2022-12-23T22:20:48.441Z,8
2022-12-23T22:25:50.924Z,8
2022-12-23T22:30:53.208Z,8.1
2022-12-23T22:35:58.816Z,7.9
2022-12-23T22:41:00.985Z,7.9
2022-12-23T22:51:04.490Z,7.9
2022-12-23T22:56:08.545Z,7.9
2022-12-23T23:01:10.602Z,8
2022-12-23T23:06:12.676Z,7.9
2022-12-23T23:11:14.810Z,7.9
2022-12-23T23:16:16.975Z,7.8
2022-12-23T23:21:19.325Z,7.8
2022-12-23T23:26:21.466Z,7.9
2022-12-23T23:31:53.737Z,8
2022-12-23T23:36:26.495Z,8
2022-12-23T23:41:28.632Z,8
2022-12-23T23:46:31.239Z,8.1
2022-12-23T23:51:33.308Z,8.1
2022-12-23T23:56:40.888Z,8.2
